Time;durP1;ratioP1;P1;durP2;ratioP2;P2;SDS_P1;SDS_P2;PMS_P1;PMS_P2;Temp;Humidity;BMP_temperature;BMP_pressure;BME280_temperature;BME280_humidity;BME280_pressure;Samples;Min_cycle;Max_cycle;Signal;HPM_P1;HPM_P2
2022/09/23 00:01:31;;;;;;;0.77;0.77;;;10.50;79.70;;;;;;4897529;29;20037;-72
2022/09/23 00:03:58;;;;;;;0.75;0.43;;;10.60;79.80;;;;;;4880793;29;20044;-72
2022/09/23 00:06:24;;;;;;;2.08;0.70;;;10.50;79.80;;;;;;4897170;29;20040;-71
2022/09/23 00:08:51;;;;;;;0.65;0.65;;;10.50;79.80;;;;;;4897243;29;20502;-72
2022/09/23 00:11:20;;;;;;;0.70;0.70;;;10.50;79.80;;;;;;4897085;29;20127;-73
2022/09/23 00:13:48;;;;;;;0.60;0.50;;;10.60;79.80;;;;;;4896894;29;20411;-72
2022/09/23 00:16:20;;;;;;;0.50;0.50;;;10.50;79.80;;;;;;4896832;29;20060;-72
2022/09/23 00:18:48;;;;;;;1.15;0.63;;;10.50;79.80;;;;;;4880894;29;20123;-71
2022/09/23 00:21:14;;;;;;;0.60;0.60;;;10.50;79.80;;;;;;4880413;29;20049;-72
2022/09/23 00:23:41;;;;;;;0.60;0.60;;;10.40;79.80;;;;;;4896744;29;20151;-72
2022/09/23 00:26:10;;;;;;;1.45;0.93;;;10.50;79.90;;;;;;4897014;29;20127;-72
2022/09/23 00:28:36;;;;;;;0.80;0.70;;;10.40;79.90;;;;;;4897123;29;20051;-72
2022/09/23 00:31:04;;;;;;;0.88;0.68;;;10.40;80.00;;;;;;4879249;29;20076;-72
2022/09/23 00:33:30;;;;;;;0.73;0.73;;;10.40;80.70;;;;;;4896532;29;20488;-71
2022/09/23 00:36:05;;;;;;;1.13;0.80;;;10.40;80.10;;;;;;4896932;29;20041;-72
2022/09/23 00:38:32;;;;;;;0.85;0.63;;;10.40;80.20;;;;;;4864886;29;20483;-72
2022/09/23 00:40:59;;;;;;;1.10;0.88;;;10.40;80.20;;;;;;4896675;29;20040;-71
2022/09/23 00:43:51;;;;;;;1.45;0.75;;;10.30;80.20;;;;;;4864506;29;20077;-72
2022/09/23 00:46:35;;;;;;;0.50;0.50;;;10.30;80.40;;;;;;4897069;29;20428;-71
2022/09/23 00:49:11;;;;;;;0.60;0.60;;;10.30;80.40;;;;;;4896255;29;20041;-71
2022/09/23 00:51:42;;;;;;;1.13;0.75;;;10.30;80.40;;;;;;4879686;29;20120;-71
2022/09/23 00:54:08;;;;;;;0.63;0.57;;;10.30;80.40;;;;;;4896671;29;20128;-72
2022/09/23 00:56:35;;;;;;;0.65;0.57;;;10.30;80.40;;;;;;4896993;29;20128;-71
2022/09/23 00:59:02;;;;;;;0.70;0.70;;;10.30;80.40;;;;;;4896577;29;20060;-72
2022/09/23 01:01:27;;;;;;;0.80;0.77;;;10.30;80.40;;;;;;4896616;29;20104;-71
2022/09/23 01:03:55;;;;;;;0.50;0.50;;;10.30;80.50;;;;;;4896600;29;20051;-71
2022/09/23 01:06:20;;;;;;;0.75;0.75;;;10.30;80.50;;;;;;4879510;29;20571;-71
2022/09/23 01:08:47;;;;;;;0.63;0.60;;;10.30;80.50;;;;;;4896066;29;20135;-72
2022/09/23 01:11:32;;;;;;;1.42;0.70;;;10.20;80.50;;;;;;4895987;29;20045;-71
2022/09/23 01:14:22;;;;;;;0.57;0.50;;;10.20;80.60;;;;;;4896089;29;20080;-72
2022/09/23 01:17:00;;;;;;;0.70;0.70;;;10.20;80.70;;;;;;4895774;29;20104;-72
2022/09/23 01:20:02;;;;;;;0.95;0.77;;;10.10;80.70;;;;;;4896171;29;20051;-71
2022/09/23 01:22:52;;;;;;;1.25;0.80;;;10.10;80.90;;;;;;4896054;29;20128;-71
2022/09/23 01:25:46;;;;;;;0.80;0.50;;;10.10;80.90;;;;;;4866056;29;20562;-71
2022/09/23 01:28:33;;;;;;;0.75;0.60;;;10.10;80.90;;;;;;4881642;29;20047;-72
2022/09/23 01:31:12;;;;;;;0.60;0.60;;;10.10;80.90;;;;;;4895740;29;20052;-71
2022/09/23 01:33:57;;;;;;;1.08;0.60;;;10.10;81.00;;;;;;4896406;29;20053;-72
2022/09/23 01:36:38;;;;;;;0.77;0.60;;;10.00;81.00;;;;;;4864387;29;20041;-72
2022/09/23 01:39:12;;;;;;;0.63;0.60;;;10.10;81.00;;;;;;4896041;29;20048;-72
2022/09/23 01:42:01;;;;;;;0.95;0.80;;;10.00;81.00;;;;;;4848517;29;20040;-72
2022/09/23 01:44:35;;;;;;;0.50;0.50;;;10.00;81.10;;;;;;4895716;29;20120;-72
2022/09/23 01:47:16;;;;;;;1.00;0.60;;;10.00;81.40;;;;;;4896010;29;20041;-72
2022/09/23 01:49:51;;;;;;;0.70;0.65;;;9.90;81.00;;;;;;4895683;29;20491;-71
2022/09/23 01:52:27;;;;;;;0.50;0.50;;;10.00;81.20;;;;;;4863434;29;21135;-71
2022/09/23 01:55:07;;;;;;;0.70;0.55;;;9.90;81.20;;;;;;4896055;29;20072;-72
2022/09/23 01:57:39;;;;;;;1.10;0.82;;;9.90;81.20;;;;;;4865111;29;20056;-72
2022/09/23 02:00:17;;;;;;;0.40;0.40;;;9.90;81.30;;;;;;4878632;29;20053;-72
2022/09/23 02:02:56;;;;;;;1.02;0.70;;;9.80;81.30;;;;;;4895785;29;20052;-71
2022/09/23 02:05:36;;;;;;;0.50;0.50;;;9.80;81.30;;;;;;4879907;29;20041;-72
2022/09/23 02:08:25;;;;;;;0.70;0.70;;;9.80;81.40;;;;;;4880558;29;20127;-71
2022/09/23 02:10:57;;;;;;;0.98;0.60;;;9.70;81.50;;;;;;4895697;29;20048;-71
2022/09/23 02:13:31;;;;;;;0.90;0.57;;;9.70;81.40;;;;;;4895566;29;20052;-72
2022/09/23 02:16:02;;;;;;;0.82;0.50;;;9.70;81.50;;;;;;4895836;29;20045;-72
2022/09/23 02:18:36;;;;;;;0.88;0.70;;;9.70;81.60;;;;;;4864454;29;20144;-72
2022/09/23 02:21:06;;;;;;;0.70;0.68;;;9.60;81.60;;;;;;4895644;29;20107;-71
2022/09/23 02:23:41;;;;;;;0.60;0.60;;;9.70;81.70;;;;;;4895372;29;20041;-71
2022/09/23 02:26:18;;;;;;;0.70;0.60;;;9.60;81.70;;;;;;4895897;29;20550;-72
2022/09/23 02:29:06;;;;;;;0.73;0.68;;;9.60;81.70;;;;;;4867956;29;20033;-71
2022/09/23 02:31:55;;;;;;;0.85;0.75;;;9.60;81.70;;;;;;4895771;29;20506;-71
2022/09/23 02:34:58;;;;;;;0.70;0.60;;;9.60;81.70;;;;;;4895397;29;20048;-71
2022/09/23 02:37:43;;;;;;;0.70;0.70;;;9.70;81.80;;;;;;4881289;29;20055;-71
2022/09/23 02:40:22;;;;;;;0.57;0.57;;;9.60;81.70;;;;;;4895150;29;20032;-71
2022/09/23 02:43:19;;;;;;;0.40;0.40;;;9.60;81.70;;;;;;4895434;29;20040;-72
2022/09/23 02:45:45;;;;;;;1.52;0.60;;;9.50;81.60;;;;;;4883368;29;20053;-72
2022/09/23 02:48:17;;;;;;;0.82;0.75;;;9.70;81.60;;;;;;4863175;29;20045;-72
2022/09/23 02:50:43;;;;;;;0.57;0.50;;;9.60;81.60;;;;;;4895513;29;20483;-72
2022/09/23 02:53:09;;;;;;;1.05;0.80;;;9.60;81.60;;;;;;4863171;29;20071;-71
2022/09/23 02:55:35;;;;;;;0.52;0.52;;;9.60;81.60;;;;;;4898916;29;20475;-72
2022/09/23 02:58:02;;;;;;;0.70;0.60;;;9.60;81.60;;;;;;4898378;29;20033;-72
2022/09/23 03:00:55;;;;;;;0.43;0.43;;;9.60;81.60;;;;;;4898673;29;20084;-72
2022/09/23 03:03:42;;;;;;;0.63;0.55;;;9.60;81.60;;;;;;4884108;29;20479;-72
2022/09/23 03:06:25;;;;;;;0.52;0.50;;;9.70;81.70;;;;;;4878584;29;20072;-71
2022/09/23 03:09:05;;;;;;;0.40;0.40;;;9.70;81.70;;;;;;4898114;29;20096;-72
2022/09/23 03:11:36;;;;;;;0.77;0.63;;;9.70;81.70;;;;;;4865892;29;20389;-71
2022/09/23 03:14:16;;;;;;;;;;;9.60;81.60;;;;;;4898893;29;20111;-72
2022/09/23 03:16:51;;;;;;;0.30;0.30;;;9.70;81.60;;;;;;4865696;29;19930;-72
2022/09/23 03:19:32;;;;;;;0.63;0.60;;;9.70;81.50;;;;;;4898224;29;20197;-72
2022/09/23 03:22:08;;;;;;;0.75;0.57;;;9.60;81.50;;;;;;4898006;29;20047;-72
2022/09/23 03:24:36;;;;;;;0.52;0.43;;;9.70;81.60;;;;;;4898178;29;20056;-71
2022/09/23 03:27:10;;;;;;;1.08;0.60;;;9.70;81.50;;;;;;4897904;29;20051;-72
2022/09/23 03:29:36;;;;;;;1.05;0.60;;;9.60;81.50;;;;;;4897878;29;20048;-72
2022/09/23 03:32:05;;;;;;;0.60;0.55;;;9.60;81.60;;;;;;4881067;29;20097;-72
2022/09/23 03:34:34;;;;;;;0.73;0.60;;;9.60;81.70;;;;;;4881362;29;20407;-72
2022/09/23 03:37:06;;;;;;;1.08;0.98;;;9.60;81.80;;;;;;4897577;29;20491;-72
2022/09/23 03:39:50;;;;;;;0.95;0.70;;;9.50;81.80;;;;;;4897875;29;20040;-72
2022/09/23 03:42:20;;;;;;;0.70;0.70;;;9.60;82.00;;;;;;4898010;29;20101;-71
2022/09/23 03:44:51;;;;;;;0.93;0.60;;;9.60;81.90;;;;;;4897832;29;20025;-71
2022/09/23 03:47:19;;;;;;;0.85;0.73;;;9.50;81.90;;;;;;4897615;29;20096;-72
2022/09/23 03:49:47;;;;;;;0.40;0.40;;;9.50;81.90;;;;;;4867276;29;20087;-72
2022/09/23 03:52:14;;;;;;;1.27;0.80;;;9.50;82.00;;;;;;4897454;29;20055;-71
2022/09/23 03:54:40;;;;;;;0.82;0.73;;;9.50;82.00;;;;;;4897320;29;20487;-72
2022/09/23 03:57:06;;;;;;;0.80;0.80;;;9.50;82.10;;;;;;4865315;29;20052;-72
2022/09/23 03:59:31;;;;;;;0.80;0.65;;;9.40;82.10;;;;;;4897232;29;20049;-72
2022/09/23 04:01:58;;;;;;;2.10;0.88;;;9.50;82.20;;;;;;4897073;29;20049;-72
2022/09/23 04:04:26;;;;;;;1.15;0.90;;;9.50;82.30;;;;;;4897190;29;20055;-72
2022/09/23 04:06:53;;;;;;;0.73;0.73;;;9.50;82.30;;;;;;4897524;29;20040;-72
2022/09/23 04:09:19;;;;;;;0.90;0.70;;;9.50;82.30;;;;;;4897294;29;20045;-72
2022/09/23 04:11:47;;;;;;;0.63;0.63;;;9.60;82.30;;;;;;4897495;29;20059;-72
2022/09/23 04:14:13;;;;;;;0.95;0.63;;;9.50;82.20;;;;;;4897196;29;20088;-72
2022/09/23 04:16:39;;;;;;;1.17;0.70;;;9.50;82.20;;;;;;4897849;29;20089;-72
2022/09/23 04:19:05;;;;;;;0.98;0.70;;;9.40;82.20;;;;;;4897404;29;20476;-72
2022/09/23 04:21:31;;;;;;;0.70;0.70;;;9.40;82.20;;;;;;4897368;29;20043;-72
2022/09/23 04:23:57;;;;;;;0.50;0.50;;;9.40;82.30;;;;;;4877229;29;20052;-72
2022/09/23 04:26:23;;;;;;;0.50;0.50;;;9.50;82.40;;;;;;4897730;29;20104;-72
2022/09/23 04:28:49;;;;;;;0.80;0.70;;;9.50;82.30;;;;;;4897388;29;20495;-72
2022/09/23 04:31:14;;;;;;;1.02;0.82;;;9.40;82.30;;;;;;4897548;29;20103;-73
2022/09/23 04:33:40;;;;;;;0.82;0.65;;;9.40;82.30;;;;;;4897343;29;20048;-72
2022/09/23 04:36:06;;;;;;;0.50;0.50;;;9.50;82.30;;;;;;4897320;29;20032;-72
2022/09/23 04:38:32;;;;;;;1.08;0.63;;;9.50;82.40;;;;;;4896761;29;20044;-73
2022/09/23 04:40:58;;;;;;;0.50;0.50;;;9.40;82.20;;;;;;4896796;29;20032;-72
2022/09/23 04:43:24;;;;;;;1.30;0.90;;;9.40;82.30;;;;;;4865314;29;20061;-72
2022/09/23 04:46:02;;;;;;;1.83;1.00;;;9.40;82.40;;;;;;4877741;29;20064;-72
2022/09/23 04:48:28;;;;;;;0.70;0.70;;;9.40;82.50;;;;;;4897246;29;20048;-72
2022/09/23 04:51:01;;;;;;;1.58;0.90;;;9.50;82.60;;;;;;4896598;29;20132;-72
2022/09/23 04:53:27;;;;;;;0.93;0.82;;;9.40;82.60;;;;;;4896828;29;20104;-72
2022/09/23 04:55:54;;;;;;;0.88;0.70;;;9.40;82.50;;;;;;4896572;29;20488;-71
2022/09/23 04:58:21;;;;;;;0.88;0.80;;;9.30;82.60;;;;;;4896571;29;20051;-72
2022/09/23 05:00:47;;;;;;;0.52;0.40;;;9.30;82.60;;;;;;4896644;29;20041;-72
2022/09/23 05:03:17;;;;;;;1.17;0.82;;;9.40;82.70;;;;;;4896532;29;20104;-72
2022/09/23 05:05:43;;;;;;;1.00;0.70;;;9.30;82.60;;;;;;4897077;29;20091;-72
2022/09/23 05:08:08;;;;;;;0.90;0.70;;;9.40;82.60;;;;;;4896924;29;20479;-73
2022/09/23 05:10:34;;;;;;;1.30;0.90;;;9.50;82.60;;;;;;4879770;29;20056;-72
2022/09/23 05:12:59;;;;;;;0.82;0.70;;;9.40;82.60;;;;;;4896842;29;20059;-72
2022/09/23 05:15:26;;;;;;;0.90;0.70;;;9.40;82.60;;;;;;4858311;29;20049;-72
2022/09/23 05:17:51;;;;;;;0.60;0.60;;;9.30;82.60;;;;;;4896136;29;20092;-72
2022/09/23 05:20:18;;;;;;;0.57;0.57;;;9.40;82.60;;;;;;4879616;29;20040;-72
2022/09/23 05:22:44;;;;;;;0.52;0.52;;;9.40;82.80;;;;;;4896261;29;20082;-72
2022/09/23 05:25:10;;;;;;;1.30;0.70;;;9.40;82.70;;;;;;4896673;29;20032;-73
2022/09/23 05:27:35;;;;;;;0.75;0.60;;;9.40;82.80;;;;;;4896207;29;20043;-73
2022/09/23 05:30:01;;;;;;;0.63;0.63;;;9.40;82.80;;;;;;4896544;29;20119;-73
2022/09/23 05:32:27;;;;;;;0.75;0.68;;;9.40;82.70;;;;;;4879926;29;20040;-73
2022/09/23 05:34:54;;;;;;;0.98;0.57;;;9.40;82.70;;;;;;4895989;29;20063;-73
2022/09/23 05:37:21;;;;;;;0.80;0.70;;;9.40;82.80;;;;;;4895915;29;20067;-73
2022/09/23 05:39:46;;;;;;;0.65;0.60;;;9.40;82.80;;;;;;4896167;29;20047;-74
2022/09/23 05:42:12;;;;;;;0.50;0.50;;;9.40;82.80;;;;;;4895998;29;20048;-73
2022/09/23 05:44:38;;;;;;;0.82;0.70;;;9.50;82.80;;;;;;4896587;29;20055;-74
2022/09/23 05:47:04;;;;;;;0.65;0.57;;;9.50;82.80;;;;;;4896160;29;20048;-73
2022/09/23 05:49:30;;;;;;;0.70;0.70;;;9.50;82.80;;;;;;4877373;29;20056;-73
2022/09/23 05:51:55;;;;;;;0.68;0.55;;;9.50;82.80;;;;;;4896176;29;20044;-74
2022/09/23 05:54:21;;;;;;;0.47;0.47;;;9.50;82.70;;;;;;4879708;29;20059;-73
2022/09/23 05:56:47;;;;;;;1.17;0.85;;;9.60;82.80;;;;;;4896100;29;20043;-73
2022/09/23 05:59:13;;;;;;;0.80;0.70;;;9.60;82.70;;;;;;4896264;29;20044;-74
2022/09/23 06:01:39;;;;;;;0.52;0.52;;;9.60;82.70;;;;;;4895871;29;20032;-73
2022/09/23 06:04:06;;;;;;;0.70;0.70;;;9.70;82.60;;;;;;4896145;29;20037;-73
2022/09/23 06:06:38;;;;;;;0.60;0.60;;;9.70;82.60;;;;;;4896602;29;20497;-73
2022/09/23 06:09:05;;;;;;;1.02;0.80;;;9.70;82.60;;;;;;4896360;29;20093;-74
2022/09/23 06:11:32;;;;;;;0.68;0.52;;;9.70;82.50;;;;;;4895797;29;20488;-74
2022/09/23 06:13:59;;;;;;;0.65;0.60;;;9.70;82.50;;;;;;4896286;29;20060;-73
2022/09/23 06:16:26;;;;;;;0.50;0.50;;;9.70;82.50;;;;;;4851427;29;20033;-72
2022/09/23 06:18:52;;;;;;;0.40;0.40;;;9.80;82.50;;;;;;4896056;29;20044;-73
2022/09/23 06:21:18;;;;;;;0.85;0.60;;;9.80;82.50;;;;;;4895757;29;20479;-73
2022/09/23 06:23:45;;;;;;;0.50;0.50;;;9.90;82.60;;;;;;4895724;29;20048;-72
2022/09/23 06:26:13;;;;;;;1.02;0.60;;;9.90;82.50;;;;;;4895570;29;20448;-73
2022/09/23 06:28:41;;;;;;;1.02;0.65;;;9.90;82.50;;;;;;4881027;29;20040;-73
2022/09/23 06:31:12;;;;;;;0.75;0.70;;;10.00;82.40;;;;;;4898937;29;20085;-73
2022/09/23 06:33:38;;;;;;;0.75;0.60;;;10.00;82.40;;;;;;4898697;29;20048;-73
2022/09/23 06:36:06;;;;;;;0.80;0.70;;;10.10;82.40;;;;;;4899210;29;20048;-73
2022/09/23 06:38:33;;;;;;;0.88;0.57;;;10.10;82.40;;;;;;4899020;29;20056;-73
2022/09/23 06:40:59;;;;;;;0.50;0.50;;;10.10;82.30;;;;;;4899021;29;20045;-73
2022/09/23 06:43:25;;;;;;;0.77;0.70;;;10.20;82.30;;;;;;4899292;29;20128;-73
2022/09/23 06:45:53;;;;;;;0.88;0.63;;;10.20;82.20;;;;;;4865481;29;20056;-73
2022/09/23 06:48:19;;;;;;;0.60;0.60;;;10.30;82.20;;;;;;4898470;29;20059;-74
2022/09/23 06:50:45;;;;;;;1.02;0.63;;;10.30;82.10;;;;;;4881848;29;20052;-73
2022/09/23 06:53:12;;;;;;;0.70;0.60;;;10.50;82.10;;;;;;4898681;29;20045;-73
2022/09/23 06:55:38;;;;;;;0.70;0.60;;;10.50;82.00;;;;;;4899121;29;20124;-73
2022/09/23 06:58:03;;;;;;;0.77;0.50;;;10.50;81.90;;;;;;4868243;29;20142;-74
2022/09/23 07:00:29;;;;;;;0.80;0.65;;;10.50;81.90;;;;;;4898715;29;20049;-73
2022/09/23 07:02:55;;;;;;;0.57;0.50;;;10.60;81.90;;;;;;4899109;29;20041;-74
2022/09/23 07:05:21;;;;;;;0.55;0.55;;;10.60;81.80;;;;;;4898524;29;20079;-74
2022/09/23 07:07:47;;;;;;;0.63;0.63;;;10.70;81.90;;;;;;4878054;29;20060;-73
2022/09/23 07:10:13;;;;;;;0.70;0.70;;;10.70;81.90;;;;;;4898598;29;20044;-74
2022/09/23 07:12:40;;;;;;;0.70;0.60;;;10.70;81.80;;;;;;4866224;29;20413;-75
2022/09/23 07:15:06;;;;;;;0.47;0.47;;;10.80;81.80;;;;;;4898208;29;20491;-74
2022/09/23 07:17:33;;;;;;;0.57;0.43;;;10.80;81.70;;;;;;4881567;29;20047;-74
2022/09/23 07:20:00;;;;;;;0.65;0.60;;;10.90;82.40;;;;;;4898584;29;20492;-74
2022/09/23 07:22:26;;;;;;;0.70;0.60;;;10.90;81.70;;;;;;4850834;29;20037;-74
2022/09/23 07:24:56;;;;;;;0.50;0.50;;;11.00;81.70;;;;;;4898374;29;20100;-74
2022/09/23 07:27:26;;;;;;;0.90;0.55;;;11.00;81.60;;;;;;4866394;29;20100;-74
2022/09/23 07:29:52;;;;;;;0.40;0.40;;;11.10;81.70;;;;;;4898663;29;20051;-74
2022/09/23 07:32:20;;;;;;;0.50;0.50;;;11.10;81.60;;;;;;4897840;29;20476;-74
2022/09/23 07:34:46;;;;;;;0.55;0.55;;;11.00;81.50;;;;;;4898309;29;20048;-75
2022/09/23 07:37:14;;;;;;;0.57;0.57;;;11.10;81.60;;;;;;4865976;29;20073;-75
2022/09/23 07:39:40;;;;;;;0.93;0.77;;;11.20;81.60;;;;;;4881004;29;20408;-74
2022/09/23 07:42:06;;;;;;;0.70;0.70;;;11.20;81.60;;;;;;4881036;29;20048;-74
2022/09/23 07:44:33;;;;;;;0.75;0.60;;;11.20;81.60;;;;;;4897877;29;20103;-76
2022/09/23 07:46:59;;;;;;;0.60;0.60;;;11.30;81.60;;;;;;4898347;29;20029;-75
2022/09/23 07:49:26;;;;;;;0.68;0.68;;;11.30;81.60;;;;;;4898550;29;20037;-75
2022/09/23 07:51:52;;;;;;;0.85;0.75;;;11.30;81.60;;;;;;4897793;29;20025;-75
2022/09/23 07:54:19;;;;;;;0.52;0.52;;;11.40;81.50;;;;;;4898533;29;20041;-74
2022/09/23 07:56:45;;;;;;;0.88;0.52;;;11.50;81.50;;;;;;4898160;29;20064;-74
2022/09/23 07:59:16;;;;;;;1.10;0.60;;;11.50;81.40;;;;;;4897924;29;20133;-77
2022/09/23 08:01:45;;;;;;;0.57;0.57;;;11.60;81.40;;;;;;4881439;29;20045;-74
2022/09/23 08:04:17;;;;;;;0.60;0.60;;;11.70;81.20;;;;;;4874954;29;20080;-76
2022/09/23 08:06:47;;;;;;;0.50;0.50;;;11.80;81.10;;;;;;4851895;29;20479;-75
2022/09/23 08:09:14;;;;;;;0.47;0.47;;;11.80;80.90;;;;;;4881046;29;20099;-75
2022/09/23 08:11:40;;;;;;;0.75;0.60;;;11.90;80.80;;;;;;4897958;29;20128;-74
2022/09/23 08:14:08;;;;;;;0.95;0.63;;;12.00;80.80;;;;;;4897859;29;20056;-73
2022/09/23 08:16:34;;;;;;;0.82;0.73;;;12.10;80.80;;;;;;4865065;29;20044;-73
2022/09/23 08:19:01;;;;;;;0.90;0.63;;;12.20;80.60;;;;;;4868768;29;20049;-74
2022/09/23 08:21:27;;;;;;;0.95;0.70;;;12.30;80.60;;;;;;4876836;29;20067;-73
2022/09/23 08:23:52;;;;;;;0.80;0.80;;;12.40;80.60;;;;;;4865100;29;20044;-74
2022/09/23 08:26:18;;;;;;;0.63;0.63;;;12.40;80.40;;;;;;4897826;29;20047;-73
2022/09/23 08:28:44;;;;;;;0.68;0.68;;;12.50;80.20;;;;;;4897630;29;20033;-73
2022/09/23 08:31:12;;;;;;;1.98;0.65;;;12.50;80.20;;;;;;4897179;29;20045;-75
2022/09/23 08:33:39;;;;;;;1.38;0.80;;;12.60;80.30;;;;;;4865469;29;20056;-73
2022/09/23 08:36:06;;;;;;;1.60;0.82;;;12.60;80.20;;;;;;4897763;29;20124;-73
2022/09/23 08:38:32;;;;;;;0.88;0.80;;;12.70;80.20;;;;;;4897652;29;20033;-74
2022/09/23 08:41:18;;;;;;;0.70;0.47;;;12.80;80.20;;;;;;4897524;29;20048;-74
2022/09/23 08:44:00;;;;;;;0.50;0.50;;;12.80;80.10;;;;;;4897104;29;20052;-73
2022/09/23 08:46:33;;;;;;;0.60;0.60;;;13.00;80.00;;;;;;4897143;29;20043;-74
2022/09/23 08:49:00;;;;;;;0.90;0.63;;;13.10;79.90;;;;;;4896846;29;20072;-76
2022/09/23 08:51:46;;;;;;;0.50;0.50;;;13.10;79.60;;;;;;4896427;29;20070;-75
2022/09/23 08:54:13;;;;;;;0.93;0.80;;;13.20;79.60;;;;;;4876673;29;20045;-73
2022/09/23 08:56:42;;;;;;;0.60;0.60;;;13.30;79.60;;;;;;4878123;29;20181;-75
2022/09/23 08:59:34;;;;;;;0.50;0.50;;;13.40;79.60;;;;;;4896621;29;20044;-75
2022/09/23 09:02:08;;;;;;;0.85;0.80;;;13.50;79.50;;;;;;4896400;29;21244;-75
2022/09/23 09:04:49;;;;;;;0.50;0.50;;;13.60;79.30;;;;;;4879647;29;20543;-75
2022/09/23 09:07:19;;;;;;;0.60;0.60;;;13.80;79.30;;;;;;4896856;29;20045;-76
2022/09/23 09:09:52;;;;;;;0.77;0.63;;;13.70;79.20;;;;;;4864471;29;20080;-75
2022/09/23 09:12:25;;;;;;;0.85;0.77;;;13.80;79.30;;;;;;4896517;29;20056;-76
2022/09/23 09:15:01;;;;;;;0.63;0.60;;;13.90;79.20;;;;;;4896868;29;20045;-75
2022/09/23 09:17:37;;;;;;;1.60;1.05;;;14.00;79.10;;;;;;4896741;29;20048;-75
2022/09/23 09:20:22;;;;;;;0.50;0.50;;;14.10;79.10;;;;;;4896629;29;20052;-76
2022/09/23 09:22:59;;;;;;;0.73;0.65;;;14.20;79.00;;;;;;4879613;29;20055;-76
2022/09/23 09:25:48;;;;;;;1.08;0.77;;;14.30;78.90;;;;;;4896662;29;20072;-76
2022/09/23 09:28:23;;;;;;;0.57;0.57;;;14.40;79.50;;;;;;4871696;29;20044;-76
2022/09/23 09:30:55;;;;;;;1.08;0.95;;;14.50;78.80;;;;;;4896771;29;20049;-76
2022/09/23 09:33:31;;;;;;;1.40;0.90;;;14.50;78.70;;;;;;4896218;29;20488;-76
2022/09/23 09:36:31;;;;;;;0.80;0.80;;;14.60;78.60;;;;;;4896508;29;20029;-74
2022/09/23 09:38:58;;;;;;;0.73;0.60;;;14.70;78.40;;;;;;4896168;29;20044;-74
2022/09/23 09:41:30;;;;;;;0.35;0.35;;;14.90;78.40;;;;;;4879343;29;20039;-76
2022/09/23 09:43:58;;;;;;;0.60;0.60;;;15.00;78.30;;;;;;4896269;29;20136;-76
2022/09/23 09:46:39;;;;;;;1.23;0.60;;;15.10;78.10;;;;;;4896521;29;20041;-75
2022/09/23 09:49:22;;;;;;;;;;;15.10;78.10;;;;;;4896229;29;20055;-74
2022/09/23 09:52:02;;;;;;;0.50;0.50;;;15.20;78.10;;;;;;4895795;29;19916;-74
2022/09/23 09:54:28;;;;;;;0.70;0.70;;;15.20;78.00;;;;;;4896351;29;20052;-74
2022/09/23 09:56:54;;;;;;;0.65;0.60;;;15.20;78.00;;;;;;4895906;29;20048;-74
2022/09/23 09:59:26;;;;;;;0.63;0.63;;;15.20;78.00;;;;;;4879154;29;20093;-74
2022/09/23 10:02:12;;;;;;;0.80;0.70;;;15.30;78.00;;;;;;4864683;29;20056;-76
2022/09/23 10:04:38;;;;;;;0.75;0.70;;;15.40;77.90;;;;;;4899797;29;20554;-76
2022/09/23 10:07:14;;;;;;;2.03;0.73;;;15.40;77.90;;;;;;4899859;29;20127;-76
2022/09/23 10:09:48;;;;;;;0.93;0.77;;;15.50;77.80;;;;;;4899451;29;20512;-76
2022/09/23 10:12:18;;;;;;;1.27;1.00;;;15.50;77.70;;;;;;4899171;29;20051;-74
2022/09/23 10:14:45;;;;;;;1.70;1.10;;;15.60;77.60;;;;;;4899849;29;20077;-75
2022/09/23 10:17:20;;;;;;;1.98;0.98;;;15.60;77.70;;;;;;4899353;29;20160;-75
2022/09/23 10:19:49;;;;;;;0.77;0.70;;;15.50;77.50;;;;;;4899436;29;20044;-76
2022/09/23 10:22:21;;;;;;;0.80;0.80;;;15.60;77.50;;;;;;4882872;29;20433;-74
2022/09/23 10:24:49;;;;;;;1.08;0.88;;;15.70;77.50;;;;;;4899048;29;20039;-75
2022/09/23 10:27:26;;;;;;;0.70;0.70;;;15.70;77.40;;;;;;4898983;29;20088;-74
2022/09/23 10:29:55;;;;;;;0.82;0.80;;;15.90;77.30;;;;;;4882256;29;20124;-74
2022/09/23 10:32:36;;;;;;;0.80;0.70;;;15.90;77.20;;;;;;4898217;29;20045;-75
2022/09/23 10:35:15;;;;;;;1.23;1.00;;;15.90;77.00;;;;;;4883022;29;20041;-74
2022/09/23 10:37:53;;;;;;;0.70;0.70;;;16.00;76.80;;;;;;4881535;29;20055;-74
2022/09/23 10:49:39;;;;;;;1.77;0.80;;;16.10;76.30;;;;;;4898615;29;20412;-74
2022/09/23 10:52:26;;;;;;;1.42;1.13;;;16.30;76.20;;;;;;4885844;29;20502;-74
2022/09/23 10:55:07;;;;;;;1.33;0.90;;;16.30;76.00;;;;;;4865517;29;20037;-74
2022/09/23 10:57:56;;;;;;;1.45;0.93;;;16.40;76.00;;;;;;4899150;29;20456;-74
2022/09/23 11:00:46;;;;;;;1.50;1.10;;;16.40;76.00;;;;;;4898570;29;20040;-74
2022/09/23 11:03:37;;;;;;;2.33;0.90;;;16.40;75.80;;;;;;4885455;29;20091;-76
2022/09/23 11:06:27;;;;;;;0.98;0.88;;;16.40;75.70;;;;;;4898277;29;20087;-76
2022/09/23 11:09:14;;;;;;;0.90;0.68;;;16.50;75.70;;;;;;4898179;29;20041;-76
2022/09/23 11:12:08;;;;;;;1.10;0.90;;;16.50;75.50;;;;;;4898215;29;20052;-75
2022/09/23 11:15:03;;;;;;;1.08;0.90;;;16.50;75.40;;;;;;4897896;29;20589;-76
2022/09/23 11:17:58;;;;;;;0.95;0.70;;;16.60;75.40;;;;;;4884162;29;20080;-75
2022/09/23 11:20:48;;;;;;;0.60;0.60;;;16.70;75.40;;;;;;4879308;29;20120;-75
2022/09/23 11:23:31;;;;;;;1.55;0.90;;;16.80;75.40;;;;;;4897717;29;20135;-76
2022/09/23 11:26:18;;;;;;;0.70;0.70;;;16.80;75.40;;;;;;4881386;29;20051;-76
2022/09/23 11:29:24;;;;;;;0.50;0.47;;;16.80;75.30;;;;;;4897637;29;20135;-77
2022/09/23 11:32:08;;;;;;;0.70;0.70;;;16.80;75.20;;;;;;4873934;29;20048;-76
2022/09/23 11:35:01;;;;;;;0.55;0.55;;;16.90;75.10;;;;;;4897838;29;20529;-76
2022/09/23 11:37:33;;;;;;;0.98;0.88;;;16.90;75.10;;;;;;4897632;29;20052;-76
2022/09/23 11:40:14;;;;;;;0.65;0.65;;;17.00;75.00;;;;;;4897887;29;20045;-75
2022/09/23 11:42:51;;;;;;;0.80;0.80;;;17.10;74.90;;;;;;4874023;29;20098;-77
2022/09/23 11:45:22;;;;;;;0.95;0.70;;;17.10;74.80;;;;;;4882210;29;20044;-77
2022/09/23 11:47:57;;;;;;;0.55;0.55;;;17.10;74.80;;;;;;4880860;29;20116;-76
2022/09/23 11:50:33;;;;;;;0.82;0.60;;;17.10;74.80;;;;;;4897772;29;20045;-77
2022/09/23 11:53:21;;;;;;;1.05;0.90;;;17.20;74.80;;;;;;4880734;29;20041;-78
2022/09/23 12:14:21;;;;;;;1.17;0.70;;;17.40;74.60;;;;;;4754412;30;20142;-77
2022/09/23 12:17:05;;;;;;;0.68;0.60;;;17.50;74.50;;;;;;4751453;30;20051;-77
2022/09/23 12:19:54;;;;;;;0.60;0.60;;;17.50;74.30;;;;;;4767207;30;20589;-77
2022/09/23 12:22:52;;;;;;;0.95;0.70;;;17.70;74.40;;;;;;4761970;30;20044;-80
2022/09/23 12:25:36;;;;;;;0.80;0.63;;;17.70;74.30;;;;;;4730303;30;20056;-79
2022/09/23 12:28:13;;;;;;;0.85;0.73;;;17.70;74.20;;;;;;4799422;29;20062;-75
2022/09/23 12:30:39;;;;;;;1.52;0.80;;;17.90;74.10;;;;;;4815304;29;20039;-75
2022/09/23 12:33:13;;;;;;;1.77;1.25;;;17.80;73.90;;;;;;4821556;29;20061;-76
2022/09/23 12:35:44;;;;;;;0.80;0.80;;;17.90;73.80;;;;;;4821646;29;20034;-75
2022/09/23 12:38:14;;;;;;;1.48;1.00;;;17.90;73.70;;;;;;4819193;29;20538;-75
2022/09/23 12:40:42;;;;;;;1.10;1.00;;;17.90;73.60;;;;;;4866310;29;20041;-75
2022/09/23 12:43:16;;;;;;;1.88;1.40;;;17.90;73.50;;;;;;4897210;29;20063;-76
2022/09/23 12:45:42;;;;;;;1.55;0.98;;;18.00;73.40;;;;;;4896654;29;20045;-75
2022/09/23 12:48:45;;;;;;;2.28;0.98;;;18.00;73.40;;;;;;4896976;29;20112;-75
2022/09/23 12:54:56;;;;;;;;;;;17.90;73.40;;;;;;4896258;29;20121;-74
2022/09/23 12:57:46;;;;;;;1.98;1.30;;;18.00;73.40;;;;;;4894783;29;20060;-75
2022/09/23 13:15:22;;;;;;;1.35;1.10;;;18.10;72.80;;;;;;4764396;30;20096;-75
2022/09/23 13:34:14;;;;;;;0.80;0.80;;;18.20;72.50;;;;;;4661007;30;20522;-73
2022/09/23 13:37:21;;;;;;;0.90;0.80;;;18.20;72.50;;;;;;4647454;30;20050;-76
2022/09/23 13:44:20;;;;;;;1.50;1.00;;;18.20;72.40;;;;;;4687817;30;21089;-77
2022/09/23 14:30:39;;;;;;;0.90;0.75;;;18.20;71.40;;;;;;4781106;29;20442;-75
2022/09/23 14:33:25;;;;;;;0.60;0.60;;;18.20;71.50;;;;;;4746296;30;20174;-74
2022/09/23 15:01:05;;;;;;;0.70;0.60;;;18.10;71.20;;;;;;4713997;30;20523;-76
2022/09/23 15:21:53;;;;;;;0.68;0.50;;;18.00;71.20;;;;;;4714563;30;20115;-74
2022/09/23 15:24:39;;;;;;;0.65;0.57;;;17.90;71.30;;;;;;4714535;30;20049;-75
2022/09/23 15:27:19;;;;;;;1.27;0.80;;;17.90;71.30;;;;;;4699427;30;20087;-74
2022/09/23 15:29:45;;;;;;;0.55;0.52;;;17.90;71.30;;;;;;4713730;30;20045;-75
2022/09/23 15:50:25;;;;;;;0.82;0.80;;;17.70;71.50;;;;;;4644253;30;20053;-76
2022/09/23 16:03:50;;;;;;;1.35;0.85;;;17.60;71.50;;;;;;4629130;30;20624;-74
2022/09/23 16:06:16;;;;;;;1.00;0.68;;;17.60;71.50;;;;;;4650170;30;20141;-74
2022/09/23 16:08:41;;;;;;;1.13;0.70;;;17.60;71.60;;;;;;4673702;30;20046;-76
2022/09/23 16:11:18;;;;;;;1.48;0.52;;;17.60;71.60;;;;;;4680193;30;20457;-76
2022/09/23 16:13:44;;;;;;;1.10;0.75;;;17.50;71.60;;;;;;4679250;30;20054;-74
2022/09/23 16:16:10;;;;;;;1.17;0.77;;;17.50;71.70;;;;;;4679897;30;20050;-75
2022/09/23 16:18:38;;;;;;;1.80;0.80;;;17.40;71.70;;;;;;4680052;30;20065;-75
2022/09/23 16:21:06;;;;;;;1.13;0.90;;;17.50;71.80;;;;;;4680155;30;20050;-75
2022/09/23 16:23:37;;;;;;;1.33;0.90;;;17.40;71.70;;;;;;4680374;30;20038;-75